Nearby METAR Reports

 

KFIN - Palm Coast, Florida, USA
Distance from station: ENE 9mi, 15km
Updated: Tue, 04-Aug-2020 3:50pm EDT
Clear
Clear
 Wind from varies
Wind: varies 6 mph , 9 km/h
Temperature: 93°F , 34°C
Heat Index: 107°F , 42°C
Dew Point: 77°F , 25°C
Humidity: 59%
Barometer: 29.92 inHg , 1013.2 hPa
Clouds: Clear
Visibility: 10 miles , 16 km
2020/08/04 19:50 KFIN 041950Z VRB05KT 10SM CLR 34/25 A2992
KOMN - Ormond Beach Vor, Florida, USA
Distance from station: ESE 17mi, 27km
Updated: Tue, 04-Aug-2020 3:50pm EDT
Partly cloudy
Partly cloudy
 Wind from E
Wind: E 7 mph , 11 km/h
Temperature: 90°F , 32°C
Heat Index: 104°F , 40°C
Dew Point: 77°F , 25°C
Humidity: 67%
Barometer: 29.94 inHg , 1013.9 hPa
Clouds: Partly cloudy
Visibility: 7 miles , 11 km
Cloud details: Partly cloudy 4700 ft
2020/08/04 19:50 KOMN 041950Z 10006KT 7SM SCT047 32/25 A2994
 
KDAB - Daytona Beach, Florida, USA
Distance from station: SE 24mi, 39km
Updated: Tue, 04-Aug-2020 4:06pm EDT
Thunderstorm, Mostly cloudy
Thunderstorm, Mostly cloudy
 Wind from E
Wind: E 12 mph , 19 km/h, Gust: 18 mph , 30 km/h
Temperature: 86°F , 30°C
Heat Index: 102°F , 39°C
Dew Point: 81°F , 27°C
Humidity: 84%
Barometer: 29.95 inHg , 1014.2 hPa
Summary: Thunderstorm
Clouds: Mostly cloudy
Visibility: 10 miles , 16 km
Cloud details: Partly cloudy 4200 ft
Partly cloudy 6000 ft
Mostly cloudy 9000 ft
2020/08/04 20:06 KDAB 042006Z 09010G16KT 080V150 10SM TS SCT042CB SCT060 BKN090 30/27 A2995 RMK AO2 LTG DSNT SE AND S TSB03 FRQ LTGCG SE-S TS SE-S MOV NE T03000272
KDED - Deland, Florida, USA
Distance from station: S 26mi, 41km
Updated: Tue, 04-Aug-2020 4:15pm EDT
Partly cloudy
Partly cloudy
 Wind from calm
Wind: Calm
Temperature: 95°F , 35°C
Heat Index: 105°F , 41°C
Dew Point: 73°F , 23°C
Humidity: 50%
Barometer: 29.93 inHg , 1013.5 hPa
Clouds: Partly cloudy
Visibility: 10 miles , 16 km
Cloud details: Partly cloudy 6500 ft
Partly cloudy 11000 ft
2020/08/04 20:15 KDED 042015Z AUTO 00000KT 10SM SCT065 SCT110 35/23 A2993 RMK AO2 LTG DSNT E AND SE T03460227
 
KEVB - New Smyrna Beach, Florida, USA
Distance from station: SE 36mi, 58km
Updated: Tue, 04-Aug-2020 3:50pm EDT
Rain, Mostly cloudy
Rain, Mostly cloudy
 
Summary: Rain
Clouds: Mostly cloudy
Visibility: 05 miles , 8 km
Cloud details: Mostly cloudy 1000 ft
2020/08/04 19:50 KEVB 041950Z 05SM RA BKN010 RMK AWOS OTS
KSGJ - St Augustine, Florida, USA
Distance from station: N 37mi, 60km
Updated: Tue, 04-Aug-2020 3:56pm EDT
Clear
Clear
 Wind from ESE
Wind: ESE 13 mph , 20 km/h
Temperature: 90°F , 32°C
Heat Index: 107°F , 42°C
Dew Point: 79°F , 26°C
Humidity: 71%
Barometer: 29.94 inHg , 1013.9 hPa
Clouds: Clear
Visibility: 10 miles , 16 km
2020/08/04 19:56 KSGJ 041956Z 12011KT 10SM CLR 32/26 A2994 RMK AO2 SLP136 T03220261 $
 
KSFB - Sanford/Orlando, Florida, USA
Distance from station: S 47mi, 75km
Updated: Tue, 04-Aug-2020 4:18pm EDT
Thunderstorm rain, Mist, Overcast
Thunderstorm rain, Mist, Overcast
 Wind from SE
Wind: SE 17 mph , 28 km/h, Gust: 33 mph , 54 km/h
Temperature: 79°F , 26°C
Dew Point: 75°F , 24°C
Humidity: 89%
Barometer: 29.95 inHg , 1014.2 hPa
Summary: Thunderstorm rain, Mist
Clouds: Overcast
Visibility: 3 miles , 5 km
Cloud details: Partly cloudy 900 ft
Mostly cloudy 2100 ft
Overcast 4700 ft
2020/08/04 20:18 KSFB 042018Z 14015G29KT 3SM TSRA BR SCT009 BKN021 OVC047 26/24 A2995 RMK AO2 PK WND 12030/2007 WSHFT 1949 LTG DSNT ALQDS RAB09 TSB16 P0001 T02610239
KVVG - The Villages, Florida, USA
Distance from station: SW 50mi, 80km
Updated: Wed, 14-Feb-2018 2:10pm EST
NOT Current

 Wind from calm
Wind: Calm
Temperature: 73°F , 23°C
Dew Point: 66°F , 19°C
Humidity: 78%
Barometer: 30.29 inHg , 1025.7 hPa
Visibility: 10 miles , 16 km
2018/02/14 19:10 KVVG 141910Z AUTO 00000KT 10SM 23/19 A3029 RMK A01